Blackfoot, Idaho
Current Conditions -  °F | °C
As of 5:53 AM on Wednesday 26 Nov 2014 (Local Time) from KPIH Reporting Station
Clear Clear  
Wind Chill: 36°   Ceiling: Unl
Heat Index: 44°   Visibility: 10mi
Dew Point: 37°   Wind: 18mph
Humidity: 76%   Direction: 220°SW
Pressure: 30.28"   Gusts: 28mph
Location:  43.19°N, 112.34°W
Report Text: KPIH 261253Z AUTO 22016G24KT 10SM CLR 07/03 A3028 RMK AO2 PK WND 22026/1219 SLP250 T00670028
Loading
Personal Weather Stations






























Interactive Weather Map New forecast layout! Learn more

10-Day Weather Forecast

Advertisements
Track Severe Weather on mobile